Time;durP1;ratioP1;P1;durP2;ratioP2;P2;SDS_P1;SDS_P2;PMS_P1;PMS_P2;Temp;Humidity;BMP_temperature;BMP_pressure;BME280_temperature;BME280_humidity;BME280_pressure;Samples;Min_cycle;Max_cycle;Signal;HPM_P1;HPM_P2
2022/08/27 00:01:44;;;;;;;;;2.67;2.67;;;;;21.60;56.41;101193.09;5016203;28;45300;-76
2022/08/27 00:04:10;;;;;;;;;3.67;3.67;;;;;21.54;56.75;101186.75;5016718;28;45271;-77
2022/08/27 00:06:35;;;;;;;;;3.33;3.33;;;;;21.53;57.09;101192.41;5026582;28;45360;-76
2022/08/27 00:09:00;;;;;;;;;4.00;4.00;;;;;;;;5016822;28;45392;-76
2022/08/27 00:11:26;;;;;;;;;4.00;4.00;;;;;21.42;57.24;101191.34;5016340;28;45259;-77
2022/08/27 00:13:52;;;;;;;;;5.67;5.67;;;;;21.40;56.90;101198.91;5032566;28;45994;-77
2022/08/27 00:16:18;;;;;;;;;3.00;3.00;;;;;21.36;57.36;101189.59;5032732;28;45391;-77
2022/08/27 00:18:46;;;;;;;;;4.67;4.00;;;;;21.34;57.33;101186.31;5019910;28;45361;-76
2022/08/27 00:21:11;;;;;;;;;5.00;4.00;;;;;21.26;57.58;101187.50;5016683;28;46136;-77
2022/08/27 00:23:37;;;;;;;;;2.33;2.33;;;;;21.25;57.25;101194.78;5016201;28;45336;-76
2022/08/27 00:26:04;;;;;;;;;3.00;3.00;;;;;21.27;57.67;101199.94;5028760;28;45243;-77
2022/08/27 00:28:30;;;;;;;;;3.33;3.33;;;;;21.23;57.98;101188.78;5016884;28;45412;-76
2022/08/27 00:30:56;;;;;;;;;4.67;4.67;;;;;21.27;57.84;101194.53;5016275;28;45318;-76
2022/08/27 00:33:23;;;;;;;;;4.00;4.00;;;;;21.23;58.11;101198.78;5016063;28;45348;-77
2022/08/27 00:35:48;;;;;;;;;3.67;3.67;;;;;21.15;58.46;101200.78;5016494;28;45335;-76
2022/08/27 00:38:14;;;;;;;;;5.00;3.00;;;;;21.06;58.28;101189.50;5016035;28;45333;-76
2022/08/27 00:40:40;;;;;;;;;3.33;3.33;;;;;21.03;58.65;101194.53;5021197;28;47759;-77
2022/08/27 00:43:05;;;;;;;;;5.00;5.00;;;;;20.98;58.82;101184.41;5023811;28;45333;-76
2022/08/27 00:45:37;;;;;;;;;4.00;4.00;;;;;20.97;58.48;101193.59;5049977;28;45377;-76
2022/08/27 00:48:05;;;;;;;;;4.00;4.00;;;;;20.97;58.80;101193.59;5024719;28;45513;-76
2022/08/27 00:50:40;;;;;;;;;5.00;5.00;;;;;20.92;59.23;101186.19;5014787;28;47455;-77
2022/08/27 00:53:13;;;;;;;;;3.00;3.00;;;;;20.93;59.01;101190.53;5014951;28;46177;-77
2022/08/27 00:55:44;;;;;;;;;5.00;5.00;;;;;20.90;59.13;101190.19;5016259;28;45671;-78
2022/08/27 00:58:28;;;;;;;;;5.00;4.00;;;;;20.90;59.57;101198.28;5015914;28;45211;-77
2022/08/27 01:00:55;;;;;;;;;4.00;2.67;;;;;20.92;59.57;101188.88;5015845;28;46529;-78
2022/08/27 01:03:21;;;;;;;;;4.33;4.33;;;;;20.94;59.48;101196.75;5022363;28;45307;-77
2022/08/27 01:05:49;;;;;;;;;7.00;4.00;;;;;20.85;59.45;101177.34;5014597;28;45396;-76
2022/08/27 01:08:19;;;;;;;;;3.00;3.00;;;;;20.91;59.71;101194.50;5015778;28;45506;-76
2022/08/27 01:10:46;;;;;;;;;5.00;4.67;;;;;20.91;59.63;101186.41;5015558;28;46593;-77
2022/08/27 01:13:15;;;;;;;;;4.67;4.67;;;;;20.89;59.64;101185.81;5015808;28;45444;-76
2022/08/27 01:15:41;;;;;;;;;4.33;4.00;;;;;20.88;59.89;101190.38;5015726;28;45370;-75
2022/08/27 01:18:08;;;;;;;;;4.00;3.67;;;;;20.91;59.83;101189.13;5015608;28;45713;-76
2022/08/27 01:21:08;;;;;;;;;4.00;4.00;;;;;20.88;59.93;101195.78;5027184;28;48322;-76
2022/08/27 01:23:49;;;;;;;;;4.00;3.00;;;;;20.81;59.93;101186.97;5022032;28;45313;-76
2022/08/27 01:26:16;;;;;;;;;5.33;5.33;;;;;20.86;60.48;101194.38;5032003;28;45537;-76
2022/08/27 01:28:42;;;;;;;;;4.00;4.00;;;;;20.88;60.58;101189.53;5034165;28;47257;-76
2022/08/27 01:31:09;;;;;;;;;4.33;4.33;;;;;20.88;60.27;101195.78;5023709;28;45445;-76
2022/08/27 01:33:35;;;;;;;;;5.00;5.00;;;;;20.84;60.67;101191.06;5015207;28;45398;-76
2022/08/27 01:36:02;;;;;;;;;6.00;5.67;;;;;20.85;60.75;101188.13;5024320;28;45328;-76
2022/08/27 01:38:28;;;;;;;;;4.67;4.67;;;;;20.85;60.79;101181.91;5018741;28;45724;-76
2022/08/27 01:40:54;;;;;;;;;4.33;4.33;;;;;20.89;60.75;101189.31;5017758;28;45337;-76
2022/08/27 01:43:20;;;;;;;;;5.00;5.00;;;;;20.87;60.81;101186.03;5017138;28;45842;-76
2022/08/27 01:45:49;;;;;;;;;5.67;4.00;;;;;20.88;60.80;101186.84;5020176;28;45875;-76
2022/08/27 01:48:16;;;;;;;;;6.00;4.33;;;;;20.90;61.28;101184.78;5030009;28;46374;-75
2022/08/27 01:50:43;;;;;;;;;4.00;4.00;;;;;20.94;60.61;101184.09;5018776;28;46005;-76
2022/08/27 01:53:15;;;;;;;;;5.33;4.33;;;;;20.94;61.04;101189.47;5018203;28;45320;-76
2022/08/27 01:55:42;;;;;;;;;5.00;5.00;;;;;20.89;60.60;101175.81;5018219;28;45218;-75
2022/08/27 01:58:08;;;;;;;;;4.00;4.00;;;;;20.94;61.03;101180.53;5018151;28;45197;-76
2022/08/27 02:00:38;;;;;;;;;5.00;4.00;;;;;20.94;60.82;101175.97;5030854;28;47218;-76
2022/08/27 02:03:06;;;;;;;;;4.67;4.00;;;;;20.92;60.92;101178.06;5025301;28;45375;-76
2022/08/27 02:05:32;;;;;;;;;6.00;3.67;;;;;20.98;60.62;101183.63;5052642;28;45265;-77
2022/08/27 02:07:58;;;;;;;;;5.00;4.00;;;;;20.97;61.51;101179.25;5023850;28;46274;-76
2022/08/27 02:10:29;;;;;;;;;4.00;3.00;;;;;20.98;60.98;101181.72;5024756;28;45309;-76
2022/08/27 02:12:54;;;;;;;;;4.00;4.00;;;;;20.97;61.28;101176.53;5036699;28;45355;-75
2022/08/27 02:15:20;;;;;;;;;5.33;5.33;;;;;20.98;60.90;101183.63;5026494;28;45253;-76
2022/08/27 02:17:46;;;;;;;;;4.00;3.00;;;;;20.97;61.58;101176.53;5030914;28;46015;-75
2022/08/27 02:20:13;;;;;;;;;5.00;5.00;;;;;20.96;61.90;101172.22;5016619;28;48058;-75
2022/08/27 02:22:40;;;;;;;;;6.67;6.67;;;;;21.03;61.68;101181.84;5017753;28;45283;-76
2022/08/27 02:25:07;;;;;;;;;5.00;4.33;;;;;21.04;61.41;101180.78;5022399;28;45445;-75
2022/08/27 02:27:33;;;;;;;;;6.00;5.00;;;;;21.05;61.13;101182.44;5027984;27;46300;-77
2022/08/27 02:29:58;;;;;;;;;5.00;5.00;;;;;21.00;61.78;101168.81;5017866;28;45381;-76
2022/08/27 02:32:24;;;;;;;;;5.00;5.00;;;;;21.00;61.27;101173.38;5017973;28;45311;-76
2022/08/27 02:34:49;;;;;;;;;4.67;4.00;;;;;20.96;61.47;101166.81;5018055;28;45339;-76
2022/08/27 02:37:15;;;;;;;;;5.00;5.00;;;;;20.96;61.70;101174.91;5017925;28;45301;-75
2022/08/27 02:39:41;;;;;;;;;6.00;6.00;;;;;20.94;61.58;101175.16;5028627;28;47593;-75
2022/08/27 02:42:07;;;;;;;;;7.00;7.00;;;;;20.94;61.91;101184.09;5019449;28;45435;-75
2022/08/27 02:44:34;;;;;;;;;5.00;5.00;;;;;20.92;61.51;101177.28;5027154;28;45303;-76
2022/08/27 02:47:01;;;;;;;;;4.00;4.00;;;;;20.88;61.74;101176.88;5021109;28;45518;-76
2022/08/27 02:49:27;;;;;;;;;4.00;4.00;;;;;20.80;62.32;101169.13;5017514;28;45323;-75
2022/08/27 02:51:55;;;;;;;;;4.33;4.33;;;;;20.85;61.77;101176.50;5026031;28;45397;-75
2022/08/27 02:54:21;;;;;;;;;6.00;5.00;;;;;20.80;61.96;101169.13;5016375;28;45260;-75
2022/08/27 02:56:46;;;;;;;;;4.00;4.00;;;;;20.82;61.94;101175.09;5017402;28;45229;-76
2022/08/27 02:59:12;;;;;;;;;3.00;3.00;;;;;20.79;61.98;101165.59;5017470;28;46451;-75
2022/08/27 03:01:37;;;;;;;;;5.67;5.67;;;;;20.79;62.26;101168.28;5017787;28;45473;-76
2022/08/27 03:04:03;;;;;;;;;4.67;4.67;;;;;20.81;62.02;101171.56;5017415;28;45484;-76
2022/08/27 03:06:30;;;;;;;;;5.00;5.00;;;;;20.79;61.96;101167.47;5024929;28;46332;-76
2022/08/27 03:08:56;;;;;;;;;5.00;3.00;;;;;20.75;62.16;101164.41;5022108;28;46464;-76
2022/08/27 03:11:22;;;;;;;;;5.00;5.00;;;;;20.72;62.22;101169.44;5017524;28;45561;-76
2022/08/27 03:13:47;;;;;;;;;3.67;3.33;;;;;20.67;62.54;101165.56;5017551;28;46711;-76
2022/08/27 03:16:13;;;;;;;;;5.33;5.33;;;;;20.66;62.09;101165.81;5017044;28;45451;-76
2022/08/27 03:18:38;;;;;;;;;3.00;3.00;;;;;20.66;62.50;101174.75;5017158;28;45604;-76
2022/08/27 03:21:04;;;;;;;;;4.00;4.00;;;;;20.66;62.16;101166.63;5017384;28;45366;-76
2022/08/27 03:23:34;;;;;;;;;4.67;4.67;;;;;20.63;62.03;101161.69;5017467;28;45348;-76
2022/08/27 03:26:09;;;;;;;;;5.33;4.00;;;;;20.62;62.58;101178.94;5028735;28;45578;-76
2022/08/27 03:28:35;;;;;;;;;3.00;3.00;;;;;20.55;62.71;101168.25;5035710;28;47504;-77
2022/08/27 03:31:03;;;;;;;;;4.00;4.00;;;;;20.57;62.46;101173.41;5026539;28;45387;-76
2022/08/27 03:33:34;;;;;;;;;5.00;5.00;;;;;20.52;62.37;101168.72;5017200;28;45346;-75
2022/08/27 03:36:00;;;;;;;;;3.33;3.33;;;;;20.52;62.64;101174.09;5025544;28;46842;-75
2022/08/27 03:38:26;;;;;;;;;4.33;3.00;;;;;20.42;62.54;101165.75;5020840;28;45410;-76
2022/08/27 03:40:52;;;;;;;;;3.00;3.00;;;;;20.37;62.70;101160.19;5023900;28;45417;-76
2022/08/27 03:43:20;;;;;;;;;4.67;4.67;;;;;20.33;63.02;101165.25;5032847;28;45363;-77
2022/08/27 03:45:46;;;;;;;;;3.00;3.00;;;;;20.30;62.88;101158.41;5017225;28;45286;-76
2022/08/27 03:48:12;;;;;;;;;4.33;4.00;;;;;20.28;63.17;101154.31;5027584;28;48398;-76
2022/08/27 03:50:40;;;;;;;;;5.00;3.67;;;;;20.25;62.81;101155.59;5018270;28;45339;-76
2022/08/27 03:53:06;;;;;;;;;4.00;4.00;;;;;20.23;63.10;101165.78;5022293;28;45391;-76
2022/08/27 03:55:32;;;;;;;;;4.00;4.00;;;;;20.16;63.19;101149.72;5015377;28;47192;-76
2022/08/27 03:57:57;;;;;;;;;5.67;5.33;;;;;20.11;63.68;101154.94;5024222;28;47193;-76
2022/08/27 04:00:26;;;;;;;;;3.00;3.00;;;;;20.13;63.74;101165.50;5022262;28;45352;-76
2022/08/27 04:02:53;;;;;;;;;4.00;4.00;;;;;20.12;63.54;101163.88;5016732;28;45448;-76
2022/08/27 04:05:20;;;;;;;;;4.67;4.67;;;;;20.05;63.13;101156.69;5028768;28;47110;-76
2022/08/27 04:07:45;;;;;;;;;4.00;4.00;;;;;20.06;63.42;101147.53;5016691;28;45509;-76
2022/08/27 04:10:12;;;;;;;;;4.00;4.00;;;;;20.09;63.65;101159.78;5016343;28;45916;-75
2022/08/27 04:12:38;;;;;;;;;5.33;5.33;;;;;20.02;63.56;101149.06;5016306;28;45459;-76
2022/08/27 04:15:04;;;;;;;;;4.67;4.67;;;;;20.03;63.99;101153.38;5016590;28;45359;-76
2022/08/27 04:17:31;;;;;;;;;5.00;3.00;;;;;20.03;63.81;101157.97;5028970;28;47347;-75
2022/08/27 04:19:58;;;;;;;;;4.00;4.00;;;;;19.95;64.20;101153.69;5016894;28;45350;-75
2022/08/27 04:22:25;;;;;;;;;4.00;4.00;;;;;19.96;64.15;101157.22;5016619;28;45487;-75
2022/08/27 04:24:50;;;;;;;;;4.33;4.33;;;;;19.94;64.21;101152.84;5018460;28;45422;-75
2022/08/27 04:27:15;;;;;;;;;3.33;3.33;;;;;19.91;63.66;101153.31;5035320;28;46310;-75
2022/08/27 04:29:41;;;;;;;;;4.33;3.33;;;;;19.88;64.24;101150.25;5021112;28;45699;-76
2022/08/27 04:32:07;;;;;;;;;7.67;6.00;;;;;19.89;64.35;101151.88;5035043;28;45271;-75
2022/08/27 04:34:32;;;;;;;;;5.00;5.00;;;;;19.87;64.54;101146.72;5022868;28;46338;-76
2022/08/27 04:36:59;;;;;;;;;6.00;4.33;;;;;19.88;64.31;101150.25;5016030;28;45865;-75
2022/08/27 04:39:27;;;;;;;;;6.00;6.00;;;;;19.79;64.37;101136.25;5016473;28;45571;-75
2022/08/27 04:41:55;;;;;;;;;6.33;5.00;;;;;19.76;64.75;101140.25;5028968;28;45492;-75
2022/08/27 04:44:21;;;;;;;;;4.00;4.00;;;;;19.76;64.30;101142.94;5016329;28;45482;-75
2022/08/27 04:46:47;;;;;;;;;5.67;5.67;;;;;19.77;64.66;101154.53;5015846;28;46269;-75
2022/08/27 04:49:14;;;;;;;;;5.33;4.67;;;;;19.75;64.84;101148.56;5016091;28;45396;-75
2022/08/27 04:51:39;;;;;;;;;3.33;3.33;;;;;19.70;64.94;101141.13;5027906;28;45546;-75
2022/08/27 04:54:06;;;;;;;;;4.67;4.67;;;;;19.73;64.69;101154.16;5017014;28;45384;-75
2022/08/27 04:56:32;;;;;;;;;5.33;3.67;;;;;19.72;65.00;101154.41;5015674;28;45420;-75
2022/08/27 04:58:58;;;;;;;;;4.00;4.00;;;;;19.67;64.81;101153.19;5028494;28;45259;-75
2022/08/27 05:01:26;;;;;;;;;5.00;5.00;;;;;19.64;65.05;101158.22;5015873;28;45506;-77
2022/08/27 05:03:53;;;;;;;;;4.67;4.67;;;;;19.60;65.04;101146.25;5029631;28;46210;-76
2022/08/27 05:06:19;;;;;;;;;7.00;5.00;;;;;19.59;65.47;101168.84;5017594;28;45377;-75
2022/08/27 05:08:47;;;;;;;;;6.67;6.67;;;;;19.58;65.52;101168.03;5014720;28;46217;-76
2022/08/27 05:11:14;;;;;;;;;5.00;5.00;;;;;19.56;65.66;101172.81;5034342;28;45285;-76
2022/08/27 05:13:44;;;;;;;;;6.33;5.00;;;;;19.51;65.17;101165.38;5024240;28;45475;-77
2022/08/27 05:16:14;;;;;;;;;6.00;6.00;;;;;19.52;65.49;101164.34;5033890;28;48108;-76
2022/08/27 05:18:40;;;;;;;;;9.00;9.00;;;;;19.49;65.45;101166.66;5037111;28;46019;-76
2022/08/27 05:21:05;;;;;;;;;8.67;8.67;;;;;19.45;65.44;101163.59;5019811;28;45259;-75
2022/08/27 05:23:31;;;;;;;;;8.00;7.67;;;;;19.39;65.43;101165.31;5018857;28;45325;-76
2022/08/27 05:25:57;;;;;;;;;7.00;7.00;;;;;19.41;65.58;101173.16;5029666;28;45440;-78
2022/08/27 05:28:25;;;;;;;;;6.67;6.33;;;;;19.41;65.77;101173.16;5033471;28;45376;-75
2022/08/27 05:30:53;;;;;;;;;4.67;4.67;;;;;19.41;65.53;101178.56;5020263;28;45331;-76
2022/08/27 05:33:22;;;;;;;;;5.33;5.33;;;;;19.40;65.68;101172.34;5021090;28;45548;-76
2022/08/27 05:35:54;;;;;;;;;6.00;6.00;;;;;19.44;65.74;101191.59;5024251;28;48189;-76
2022/08/27 05:38:20;;;;;;;;;8.00;8.00;;;;;19.42;65.71;101183.72;5026103;28;45235;-77
2022/08/27 05:40:49;;;;;;;;;5.00;5.00;;;;;19.36;65.62;101179.22;5023646;28;45375;-77
2022/08/27 05:43:16;;;;;;;;;7.33;7.00;;;;;19.36;65.65;101181.13;5024055;28;45284;-76
2022/08/27 05:45:47;;;;;;;;;9.67;9.67;;;;;19.38;65.52;101187.09;5024726;28;46559;-78
2022/08/27 05:48:16;;;;;;;;;7.33;7.33;;;;;19.34;65.92;101192.13;5035196;28;46212;-78
2022/08/27 05:50:43;;;;;;;;;7.67;7.67;;;;;19.33;65.43;101186.94;5029564;28;45350;-77
2022/08/27 05:53:10;;;;;;;;;8.00;7.00;;;;;19.24;65.94;101187.22;5031028;28;46408;-78
2022/08/27 05:55:43;;;;;;;;;7.67;7.67;;;;;19.30;65.92;101189.03;5060537;28;48742;-78
2022/08/27 06:01:04;;;;;;;;;7.00;7.00;;;;;19.22;65.90;101181.25;5019721;28;45228;-75
2022/08/27 06:03:35;;;;;;;;;9.67;9.67;;;;;19.25;65.91;101183.47;5029205;28;47204;-76
2022/08/27 06:06:06;;;;;;;;;8.67;7.67;;;;;19.25;65.85;101183.47;5025386;28;45701;-77
2022/08/27 06:08:32;;;;;;;;;9.00;9.00;;;;;19.19;65.56;101184.38;5027384;28;45287;-76
2022/08/27 06:11:00;;;;;;;;;9.33;8.00;;;;;19.19;66.05;101184.38;5027852;28;45314;-76
2022/08/27 06:13:27;;;;;;;;;8.33;8.33;;;;;19.15;66.29;101183.16;5022079;28;45398;-76
2022/08/27 06:16:02;;;;;;;;;7.67;6.33;;;;;19.08;66.64;101175.16;5023842;28;45292;-76
2022/08/27 06:18:28;;;;;;;;;8.00;7.67;;;;;19.12;66.80;101178.19;5026497;28;46393;-75
2022/08/27 06:20:53;;;;;;;;;8.00;8.00;;;;;19.11;66.54;101171.19;5039036;28;45430;-74
2022/08/27 06:23:19;;;;;;;;;9.33;9.00;;;;;19.10;66.63;101166.84;5020641;28;45315;-75
2022/08/27 06:25:44;;;;;;;;;9.00;7.00;;;;;19.12;66.70;101173.66;5028509;28;46487;-76
2022/08/27 06:28:11;;;;;;;;;8.00;8.00;;;;;19.16;66.63;101182.13;5032068;28;45447;-75
2022/08/27 06:30:36;;;;;;;;;7.67;7.67;;;;;19.19;66.94;101187.06;5024195;28;45537;-77
2022/08/27 06:33:01;;;;;;;;;6.00;6.00;;;;;19.23;66.96;101182.88;5021882;28;45321;-76
2022/08/27 06:35:27;;;;;;;;;8.33;7.67;;;;;19.30;66.74;101185.50;5018165;28;46263;-79
2022/08/27 06:37:52;;;;;;;;;10.00;9.00;;;;;19.34;66.83;101188.59;5017281;28;46555;-78
2022/08/27 06:40:18;;;;;;;;;8.33;8.33;;;;;19.36;66.90;101183.81;5021788;28;45231;-80
2022/08/27 06:42:43;;;;;;;;;7.33;7.33;;;;;19.41;66.82;101192.03;5023238;28;45392;-79
2022/08/27 06:45:09;;;;;;;;;9.67;9.00;;;;;19.44;66.76;101191.59;5021523;28;46405;-79
2022/08/27 06:47:34;;;;;;;;;12.00;10.00;;;;;19.47;66.70;101188.47;5036398;28;45275;-79
2022/08/27 06:50:00;;;;;;;;;9.33;9.33;;;;;19.53;66.68;101195.66;5022224;28;45283;-82
2022/08/27 06:52:25;;;;;;;;;9.00;8.33;;;;;19.49;66.79;101182.84;5035405;28;46736;-79
2022/08/27 06:54:51;;;;;;;;;8.33;7.33;;;;;19.54;66.41;101200.00;5029389;28;45690;-79
2022/08/27 06:57:16;;;;;;;;;5.33;5.33;;;;;19.57;66.56;101206.00;5017376;28;45338;-79
2022/08/27 06:59:43;;;;;;;;;8.00;7.33;;;;;19.57;66.60;101208.69;5034070;28;45313;-80
2022/08/27 07:02:08;;;;;;;;;10.00;10.00;;;;;19.59;66.09;101206.56;5031070;27;46053;-79
2022/08/27 07:04:34;;;;;;;;;12.00;11.33;;;;;19.55;66.48;101207.00;5027956;28;46173;-78
2022/08/27 07:07:01;;;;;;;;;9.67;9.33;;;;;19.57;66.42;101204.09;5033495;28;45821;-77
2022/08/27 07:09:26;;;;;;;;;9.33;9.33;;;;;19.59;66.65;101215.50;5021699;28;45327;-77
2022/08/27 07:11:51;;;;;;;;;9.67;9.00;;;;;19.58;66.40;101204.94;5024514;28;45655;-78
2022/08/27 07:14:17;;;;;;;;;11.00;9.33;;;;;19.62;66.90;101208.81;5032146;28;47969;-78
2022/08/27 07:16:42;;;;;;;;;9.67;8.00;;;;;19.70;66.71;101222.03;5033310;28;45393;-77
2022/08/27 07:19:08;;;;;;;;;11.00;10.00;;;;;19.73;67.10;101212.66;5034419;28;45357;-77
2022/08/27 07:21:34;;;;;;;;;8.00;8.00;;;;;19.82;66.96;101219.41;5051999;28;46205;-77
2022/08/27 07:24:06;;;;;;;;;10.00;9.33;;;;;19.85;66.70;101213.56;5018536;28;45387;-78
2022/08/27 07:26:34;;;;;;;;;10.00;10.00;;;;;19.90;66.44;101219.09;5031514;28;45297;-78
2022/08/27 07:29:00;;;;;;;;;10.00;8.67;;;;;19.95;66.49;101207.63;5019533;28;45741;-78
2022/08/27 07:31:25;;;;;;;;;9.67;8.33;;;;;19.98;66.68;101209.88;5021129;28;46054;-78
2022/08/27 07:33:50;;;;;;;;;9.67;9.33;;;;;20.04;66.53;101202.78;5024826;28;46363;-76
2022/08/27 07:36:16;;;;;;;;;8.00;8.00;;;;;20.08;66.37;101213.94;5015751;28;45261;-78
2022/08/27 07:38:41;;;;;;;;;6.67;6.67;;;;;20.09;66.31;101216.44;5021264;28;45262;-77
2022/08/27 07:41:09;;;;;;;;;12.67;11.33;;;;;20.10;66.63;101220.75;5021102;28;45414;-78
2022/08/27 07:46:20;;;;;;;;;9.33;9.00;;;;;20.21;66.16;101218.34;5016608;28;45385;-78
2022/08/27 07:48:47;;;;;;;;;10.00;9.00;;;;;20.26;66.56;101224.69;5025472;27;45371;-78
2022/08/27 07:51:16;;;;;;;;;11.67;11.33;;;;;20.31;66.43;101224.84;5022978;28;45585;-77
2022/08/27 07:53:43;;;;;;;;;10.67;10.67;;;;;20.37;65.98;101220.41;5016525;28;46800;-78
2022/08/27 07:56:09;;;;;;;;;11.00;11.00;;;;;20.39;65.83;101228.28;5016708;28;45781;-78
2022/08/27 07:58:35;;;;;;;;;13.00;11.00;;;;;20.43;65.90;101229.47;5028561;28;45368;-82
2022/08/27 08:01:01;;;;;;;;;11.33;11.33;;;;;20.55;65.64;101237.63;5016229;28;45477;-78
2022/08/27 08:03:26;;;;;;;;;15.67;13.00;;;;;20.61;65.35;101227.75;5044904;28;47348;-77
2022/08/27 08:05:52;;;;;;;;;11.00;10.00;;;;;20.71;65.44;101232.63;5014940;28;45623;-80
2022/08/27 08:08:19;;;;;;;;;11.67;11.33;;;;;20.75;66.12;101225.69;5016037;28;45461;-78
2022/08/27 08:10:46;;;;;;;;;10.00;10.00;;;;;20.76;65.12;101219.22;5026701;28;45796;-82
2022/08/27 08:13:12;;;;;;;;;11.00;9.67;;;;;20.96;65.51;101237.03;5032851;28;47129;-79
2022/08/27 08:15:38;;;;;;;;;13.00;13.00;;;;;21.01;65.05;101219.06;5033869;28;45361;-78
2022/08/27 08:18:04;;;;;;;;;13.33;12.33;;;;;21.06;65.02;101216.50;5024569;28;45327;-79
2022/08/27 08:20:30;;;;;;;;;12.67;10.67;;;;;21.23;64.62;101225.81;5016588;28;45402;-78
2022/08/27 08:22:56;;;;;;;;;12.00;10.67;;;;;21.30;64.43;101224.63;5024395;28;47205;-78
2022/08/27 08:25:21;;;;;;;;;11.00;10.33;;;;;21.30;64.17;101224.63;5037670;27;45438;-79
2022/08/27 08:27:47;;;;;;;;;13.67;12.67;;;;;21.40;64.70;101228.63;5024148;28;45737;-80
2022/08/27 08:30:13;;;;;;;;;11.67;9.67;;;;;21.48;64.05;101235.53;5016581;28;45385;-81
2022/08/27 08:32:38;;;;;;;;;12.33;10.33;;;;;21.53;64.07;101239.22;5025317;28;47066;-78
2022/08/27 08:35:05;;;;;;;;;10.67;10.67;;;;;21.61;64.38;101235.28;5020036;28;45372;-82
2022/08/27 08:37:30;;;;;;;;;10.33;10.33;;;;;21.69;63.93;101232.25;5017482;28;44831;-81
2022/08/27 08:39:56;;;;;;;;;9.67;9.00;;;;;21.74;63.39;101226.13;5016095;28;46256;-79
2022/08/27 08:42:29;;;;;;;;;11.67;11.67;;;;;21.84;63.45;101230.16;5015786;28;46753;-79
2022/08/27 08:44:58;;;;;;;;;17.00;16.00;;;;;21.92;63.10;101227.88;5016228;28;45520;-79
2022/08/27 08:47:32;;;;;;;;;13.67;13.67;;;;;22.02;62.65;101229.13;5018639;28;45293;-78
2022/08/27 08:50:19;;;;;;;;;15.00;14.00;;;;;22.10;62.52;101227.94;5013580;28;45318;-78
2022/08/27 08:53:08;;;;;;;;;11.00;11.00;;;;;22.22;61.48;101230.59;5030802;28;48163;-77
2022/08/27 08:56:02;;;;;;;;;12.33;12.33;;;;;22.28;61.65;101222.34;5017916;28;45628;-80
2022/08/27 08:58:58;;;;;;;;;14.33;13.00;;;;;22.36;60.75;101217.63;5035005;28;45335;-79
2022/08/27 09:01:26;;;;;;;;;12.33;11.00;;;;;22.44;60.46;101218.03;5035053;28;45526;-78
2022/08/27 09:03:56;;;;;;;;;9.67;9.67;;;;;22.50;59.99;101216.25;5023259;28;46155;-80
2022/08/27 09:06:38;;;;;;;;;7.67;7.67;;;;;22.56;59.74;101217.16;5016022;28;45410;-78
2022/08/27 09:09:19;;;;;;;;;11.00;10.67;;;;;22.61;59.13;101217.28;5027213;28;45267;-79
2022/08/27 09:11:51;;;;;;;;;8.00;8.00;;;;;22.70;58.92;101225.84;5033685;28;47359;-80
2022/08/27 09:14:39;;;;;;;;;9.00;8.00;;;;;22.77;58.79;101226.50;5033640;28;48400;-79
2022/08/27 09:17:05;;;;;;;;;6.67;6.67;;;;;22.87;59.19;101219.59;5023631;28;45356;-76
2022/08/27 09:19:30;;;;;;;;;7.00;7.00;;;;;22.94;58.21;101212.13;5018244;28;45371;-76
2022/08/27 09:22:04;;;;;;;;;7.00;7.00;;;;;23.02;58.03;101224.47;5018252;28;45608;-76
2022/08/27 09:24:33;;;;;;;;;9.67;8.67;;;;;23.12;57.27;101224.63;5015295;28;48426;-75
2022/08/27 09:26:58;;;;;;;;;8.00;8.00;;;;;23.16;56.90;101223.03;5018362;28;45322;-75
2022/08/27 09:29:27;;;;;;;;;7.00;7.00;;;;;23.22;56.58;101213.09;5027080;28;45275;-75
2022/08/27 09:31:52;;;;;;;;;9.00;7.00;;;;;23.39;56.11;101223.13;5016942;28;46088;-76
2022/08/27 09:34:18;;;;;;;;;7.33;7.00;;;;;23.47;55.23;101221.88;5016886;28;45446;-77
2022/08/27 09:37:11;;;;;;;;;7.00;7.00;;;;;23.55;54.97;101222.28;5013048;28;45381;-74
2022/08/27 09:39:39;;;;;;;;;7.33;7.33;;;;;23.64;54.96;101227.28;5014133;28;45321;-78
2022/08/27 09:42:06;;;;;;;;;6.00;6.00;;;;;23.70;54.24;101208.09;5016627;28;45519;-76
2022/08/27 09:44:31;;;;;;;;;3.67;3.67;;;;;23.78;53.64;101219.56;5014495;28;46184;-79
2022/08/27 09:47:01;;;;;;;;;5.00;4.33;;;;;23.83;52.72;101230.50;5017073;28;45368;-77
2022/08/27 09:49:28;;;;;;;;;7.00;6.33;;;;;23.91;52.65;101221.09;5022376;28;45347;-77
2022/08/27 09:51:55;;;;;;;;;6.67;6.33;;;;;23.98;52.44;101229.03;5014787;28;45496;-77
2022/08/27 09:54:44;;;;;;;;;4.00;4.00;;;;;24.09;52.16;101225.38;5021607;28;48448;-76
2022/08/27 09:57:12;;;;;;;;;6.67;6.67;;;;;24.20;51.58;101229.88;5015829;28;47397;-77
2022/08/27 09:59:49;;;;;;;;;9.00;8.67;;;;;24.27;50.65;101218.81;5025889;28;45500;-78
2022/08/27 10:02:20;;;;;;;;;7.00;7.00;;;;;24.39;51.07;101226.81;5031034;27;47157;-76
2022/08/27 10:05:00;;;;;;;;;7.33;7.33;;;;;24.52;50.87;101217.44;5026208;28;46134;-78
2022/08/27 10:07:52;;;;;;;;;7.67;7.67;;;;;24.69;50.11;101227.38;5017982;28;45422;-77
2022/08/27 10:10:37;;;;;;;;;6.33;6.33;;;;;24.80;50.26;101231.81;5030974;28;45390;-76
2022/08/27 10:13:18;;;;;;;;;6.67;6.67;;;;;24.89;48.61;101228.63;5018423;28;45486;-78
2022/08/27 10:16:02;;;;;;;;;8.00;7.33;;;;;24.97;48.47;101220.00;5029968;28;47090;-78
2022/08/27 10:18:40;;;;;;;;;7.67;7.67;;;;;25.09;49.29;101220.66;5023519;28;45438;-76
2022/08/27 10:21:34;;;;;;;;;6.00;5.67;;;;;25.21;48.31;101234.06;5022790;28;45330;-76
2022/08/27 10:24:15;;;;;;;;;6.67;6.00;;;;;25.32;47.92;101209.66;5009735;28;45574;-76
2022/08/27 10:27:02;;;;;;;;;6.00;6.00;;;;;25.41;47.17;101213.47;5031958;28;46544;-78
2022/08/27 10:29:43;;;;;;;;;6.00;6.00;;;;;25.44;46.51;101204.78;5028677;28;45737;-77
2022/08/27 10:32:15;;;;;;;;;7.00;7.00;;;;;25.63;47.11;101209.81;5031622;28;45296;-76
2022/08/27 10:34:49;;;;;;;;;5.00;5.00;;;;;25.80;46.85;101209.59;5029496;28;46283;-76
2022/08/27 10:37:31;;;;;;;;;6.00;6.00;;;;;25.98;46.60;101207.50;5017773;28;45269;-78
2022/08/27 10:40:09;;;;;;;;;8.67;6.00;;;;;26.17;46.33;101202.38;5017697;28;45360;-77
2022/08/27 10:42:41;;;;;;;;;6.00;6.00;;;;;26.33;46.36;101216.03;5018228;28;45326;-78
2022/08/27 10:45:06;;;;;;;;;5.67;5.67;;;;;26.46;45.20;101203.81;5017094;28;45375;-77
2022/08/27 10:47:40;;;;;;;;;6.00;6.00;;;;;26.59;44.68;101208.75;5017509;28;45326;-77
2022/08/27 10:50:24;;;;;;;;;4.33;4.33;;;;;26.73;43.64;101208.19;5027188;28;45866;-76
2022/08/27 10:52:56;;;;;;;;;2.33;2.33;;;;;26.87;43.66;101199.47;5017677;28;45505;-76
2022/08/27 10:55:38;;;;;;;;;3.00;3.00;;;;;27.00;44.41;101204.38;5017264;28;46044;-76
2022/08/27 10:58:24;;;;;;;;;6.67;6.00;;;;;27.18;44.05;101199.44;5016053;28;48168;-79
2022/08/27 11:00:52;;;;;;;;;5.33;5.33;;;;;27.39;43.29;101202.09;5017466;28;45325;-77
2022/08/27 11:03:38;;;;;;;;;5.00;4.33;;;;;27.49;43.07;101196.63;5026962;28;45392;-78
2022/08/27 11:06:26;;;;;;;;;4.33;4.33;;;;;27.49;42.01;101191.16;5035446;28;46094;-77
2022/08/27 11:09:04;;;;;;;;;3.00;3.00;;;;;27.42;42.03;101190.66;5020195;28;45601;-77
2022/08/27 11:11:37;;;;;;;;;4.33;4.33;;;;;27.47;41.25;101185.16;5020438;28;45576;-77
2022/08/27 11:14:08;;;;;;;;;5.67;4.33;;;;;27.55;41.00;101187.31;5013856;28;45532;-76
2022/08/27 11:16:42;;;;;;;;;3.67;3.67;;;;;27.68;39.55;101190.59;5027588;28;45557;-76
2022/08/27 11:19:35;;;;;;;;;3.00;3.00;;;;;27.67;40.35;101186.19;5016757;28;47463;-75
2022/08/27 11:22:13;;;;;;;;;5.00;5.00;;;;;27.77;40.93;101188.09;5028448;28;45397;-76
2022/08/27 11:24:52;;;;;;;;;3.00;3.00;;;;;27.88;40.19;101180.63;5017651;28;45293;-76
2022/08/27 11:27:22;;;;;;;;;5.00;5.00;;;;;27.94;40.22;101174.03;5028509;28;46635;-79
2022/08/27 11:30:20;;;;;;;;;4.00;4.00;;;;;28.16;39.76;101183.75;5016982;28;45377;-77
2022/08/27 11:33:03;;;;;;;;;3.33;3.00;;;;;28.35;39.69;101173.00;5040311;28;45344;-76
2022/08/27 11:35:57;;;;;;;;;3.00;3.00;;;;;28.59;38.55;101169.53;5034526;28;45482;-76
2022/08/27 11:38:58;;;;;;;;;3.33;3.00;;;;;28.51;37.87;101179.16;5017174;28;45421;-77
2022/08/27 11:41:44;;;;;;;;;4.00;4.00;;;;;28.42;38.37;101178.13;5016688;28;45712;-77